Time;durP1;ratioP1;P1;durP2;ratioP2;P2;SDS_P1;SDS_P2;PMS_P1;PMS_P2;Temp;Humidity;BMP_temperature;BMP_pressure;BME280_temperature;BME280_humidity;BME280_pressure;Samples;Min_cycle;Max_cycle;Signal;HPM_P1;HPM_P2
2023/02/07 00:00:20;;;;;;;13.10;6.30;;;4.40;99.90;;;;;;5024387;28;20786;-63
2023/02/07 00:02:48;;;;;;;13.20;6.13;;;4.20;99.90;;;;;;5024027;28;20206;-63
2023/02/07 00:05:15;;;;;;;17.43;5.67;;;4.10;99.90;;;;;;5027543;28;20327;-62
2023/02/07 00:07:42;;;;;;;17.67;5.30;;;4.20;99.90;;;;;;5018902;28;20719;-63
2023/02/07 00:10:09;;;;;;;12.40;5.87;;;4.20;99.90;;;;;;5024347;28;20210;-62
2023/02/07 00:12:36;;;;;;;11.63;5.53;;;4.20;99.90;;;;;;5034341;28;20241;-62
2023/02/07 00:15:03;;;;;;;13.50;5.87;;;4.10;99.90;;;;;;5025611;28;20704;-62
2023/02/07 00:17:30;;;;;;;15.10;5.70;;;4.10;99.90;;;;;;5030288;28;20198;-62
2023/02/07 00:19:57;;;;;;;13.70;6.27;;;4.10;99.90;;;;;;5016337;28;20209;-62
2023/02/07 00:22:24;;;;;;;15.57;6.10;;;4.10;99.90;;;;;;5028212;28;20676;-62
2023/02/07 00:24:51;;;;;;;9.87;5.70;;;4.10;99.90;;;;;;5022786;28;20192;-63
2023/02/07 00:27:18;;;;;;;11.13;4.97;;;4.10;99.90;;;;;;5033565;28;20250;-64
2023/02/07 00:29:45;;;;;;;16.50;6.40;;;4.10;99.90;;;;;;5032254;28;20368;-63
2023/02/07 00:32:11;;;;;;;21.77;6.47;;;4.10;99.90;;;;;;5025396;28;20766;-64
2023/02/07 00:34:38;;;;;;;12.13;5.37;;;4.10;99.90;;;;;;5025104;28;20290;-63
2023/02/07 00:37:05;;;;;;;13.00;5.50;;;4.10;99.90;;;;;;5020977;28;20229;-63
2023/02/07 00:39:33;;;;;;;14.93;5.90;;;4.00;99.90;;;;;;5022742;28;20580;-63
2023/02/07 00:42:00;;;;;;;16.20;5.80;;;4.10;99.90;;;;;;5022152;28;20299;-63
2023/02/07 00:44:26;;;;;;;11.30;5.33;;;4.00;99.90;;;;;;5033933;28;20287;-63
2023/02/07 00:46:53;;;;;;;11.50;5.10;;;3.90;99.90;;;;;;5025478;28;20489;-63
2023/02/07 00:49:20;;;;;;;10.23;5.20;;;3.80;99.90;;;;;;5025677;28;20207;-62
2023/02/07 00:51:47;;;;;;;6.50;5.07;;;3.70;99.90;;;;;;5028773;28;20215;-63
2023/02/07 00:54:14;;;;;;;12.20;5.37;;;3.60;99.90;;;;;;5027554;28;20559;-62
2023/02/07 00:56:41;;;;;;;10.03;4.80;;;3.60;99.90;;;;;;5034046;28;20214;-62
2023/02/07 00:59:08;;;;;;;10.73;5.17;;;3.60;99.90;;;;;;5034065;28;20902;-62
2023/02/07 01:01:36;;;;;;;16.07;6.20;;;3.60;99.90;;;;;;5027263;28;20293;-63
2023/02/07 01:04:03;;;;;;;12.30;5.90;;;3.60;99.90;;;;;;5027690;28;20199;-62
2023/02/07 01:06:32;;;;;;;12.83;6.30;;;3.60;99.90;;;;;;5028119;28;20545;-62
2023/02/07 01:09:00;;;;;;;14.27;5.50;;;3.60;99.90;;;;;;5032176;28;20205;-62
2023/02/07 01:11:28;;;;;;;9.43;5.67;;;3.60;99.90;;;;;;5030192;28;20241;-62
2023/02/07 01:13:58;;;;;;;12.53;5.80;;;3.50;99.90;;;;;;5027202;28;20678;-63
2023/02/07 01:16:31;;;;;;;13.77;6.33;;;3.50;99.90;;;;;;5031751;28;20655;-63
2023/02/07 01:19:01;;;;;;;17.47;5.90;;;3.50;99.90;;;;;;5033190;28;20218;-63
2023/02/07 01:21:27;;;;;;;18.87;6.10;;;3.40;99.90;;;;;;5036725;28;20748;-63
2023/02/07 01:23:57;;;;;;;13.00;7.53;;;3.40;99.90;;;;;;5024858;28;20199;-61
2023/02/07 01:26:25;;;;;;;17.07;7.00;;;3.40;99.90;;;;;;5027435;28;20203;-60
2023/02/07 01:28:54;;;;;;;15.83;6.80;;;3.50;99.90;;;;;;5025539;28;20353;-60
2023/02/07 01:31:21;;;;;;;13.63;7.27;;;3.50;99.90;;;;;;5030925;28;20265;-64
2023/02/07 01:33:56;;;;;;;16.27;7.27;;;3.50;99.90;;;;;;5027401;28;20204;-62
2023/02/07 01:36:24;;;;;;;16.60;7.20;;;3.40;99.90;;;;;;5027427;28;21420;-61
2023/02/07 01:38:53;;;;;;;15.53;7.57;;;3.40;99.90;;;;;;5025270;28;20224;-61
2023/02/07 01:41:22;;;;;;;21.30;8.00;;;3.40;99.90;;;;;;5027421;28;20197;-61
2023/02/07 01:44:20;;;;;;;18.07;7.57;;;3.30;99.90;;;;;;5026877;28;20253;-59
2023/02/07 01:46:48;;;;;;;17.30;7.80;;;3.30;99.90;;;;;;5004935;28;20295;-59
2023/02/07 01:49:20;;;;;;;15.83;7.80;;;3.40;99.90;;;;;;5039888;28;20203;-60
2023/02/07 01:51:53;;;;;;;14.70;7.90;;;3.40;99.90;;;;;;5040303;28;20287;-59
2023/02/07 01:54:22;;;;;;;15.73;7.93;;;3.30;99.90;;;;;;5037806;28;20229;-59
2023/02/07 01:56:56;;;;;;;17.30;8.77;;;3.40;99.90;;;;;;5040344;28;20281;-60
2023/02/07 01:59:25;;;;;;;17.70;8.07;;;3.40;99.90;;;;;;5039273;28;20338;-60
2023/02/07 02:01:52;;;;;;;18.97;7.60;;;3.40;99.90;;;;;;5040479;28;20204;-60
2023/02/07 02:04:19;;;;;;;15.93;8.07;;;3.40;99.90;;;;;;5040638;28;20565;-60
2023/02/07 02:06:46;;;;;;;20.47;8.23;;;3.40;99.90;;;;;;5041167;28;20196;-60
2023/02/07 02:09:15;;;;;;;19.93;9.33;;;3.40;99.90;;;;;;5036450;28;20216;-60
2023/02/07 02:11:54;;;;;;;14.80;8.07;;;3.40;99.90;;;;;;5054971;28;20246;-59
2023/02/07 02:14:56;;;;;;;19.83;9.67;;;3.40;99.90;;;;;;5034577;28;20223;-60
2023/02/07 02:17:25;;;;;;;21.07;9.63;;;3.40;99.90;;;;;;5029341;28;22583;-59
2023/02/07 02:19:56;;;;;;;18.50;8.33;;;3.40;99.90;;;;;;5024322;28;20235;-64
2023/02/07 02:22:47;;;;;;;19.70;8.43;;;3.30;99.90;;;;;;5027462;28;20202;-60
2023/02/07 02:25:27;;;;;;;15.87;8.83;;;3.30;99.90;;;;;;5027751;28;20246;-60
2023/02/07 02:28:23;;;;;;;18.73;9.37;;;3.30;99.90;;;;;;5030593;28;20575;-59
2023/02/07 02:31:23;;;;;;;17.77;8.27;;;3.40;99.90;;;;;;5025138;28;20284;-61
2023/02/07 02:34:13;;;;;;;18.60;9.37;;;3.50;99.90;;;;;;5028300;28;20238;-62
2023/02/07 02:36:39;;;;;;;18.50;8.60;;;3.50;99.90;;;;;;5027590;28;20251;-62
2023/02/07 02:39:25;;;;;;;18.07;8.27;;;3.40;99.90;;;;;;5025714;28;20265;-59
2023/02/07 02:42:16;;;;;;;24.83;9.03;;;3.40;99.90;;;;;;5026549;28;20307;-59
2023/02/07 02:45:03;;;;;;;18.43;8.83;;;3.40;99.90;;;;;;5025163;28;20352;-63
2023/02/07 02:47:31;;;;;;;18.97;9.20;;;3.30;99.90;;;;;;5026904;28;20211;-64
2023/02/07 02:49:58;;;;;;;13.17;7.53;;;3.10;99.90;;;;;;5012876;28;20215;-64
2023/02/07 02:52:27;;;;;;;17.87;8.30;;;2.90;99.90;;;;;;5029592;28;20654;-63
2023/02/07 02:55:16;;;;;;;20.20;9.03;;;2.90;99.90;;;;;;5022189;28;20201;-64
2023/02/07 02:58:15;;;;;;;17.60;8.63;;;3.00;99.90;;;;;;5029019;28;20601;-60
2023/02/07 03:01:05;;;;;;;19.20;8.80;;;3.10;99.90;;;;;;4975583;28;20260;-59
2023/02/07 03:03:51;;;;;;;20.17;9.20;;;3.10;99.90;;;;;;5030976;28;20290;-60
2023/02/07 03:06:20;;;;;;;22.60;9.53;;;3.10;99.90;;;;;;5013486;28;20201;-59
2023/02/07 03:09:04;;;;;;;15.43;8.70;;;3.10;99.90;;;;;;5012565;28;20572;-63
2023/02/07 03:11:40;;;;;;;17.80;9.23;;;2.90;99.90;;;;;;5022826;28;20604;-63
2023/02/07 03:14:21;;;;;;;17.83;9.90;;;3.00;99.90;;;;;;5024699;28;20220;-64
2023/02/07 03:16:59;;;;;;;22.20;8.93;;;2.90;99.90;;;;;;5027464;28;20224;-63
2023/02/07 03:19:39;;;;;;;19.60;9.43;;;2.90;99.90;;;;;;5023892;28;20594;-62
2023/02/07 03:22:12;;;;;;;19.90;8.53;;;2.80;99.90;;;;;;5019206;28;20290;-63
2023/02/07 03:24:45;;;;;;;21.53;8.73;;;2.70;99.90;;;;;;5027975;28;20233;-62
2023/02/07 03:27:15;;;;;;;22.47;8.60;;;2.60;99.90;;;;;;5026383;28;20557;-62
2023/02/07 03:29:47;;;;;;;15.40;9.07;;;2.50;99.90;;;;;;5022740;28;20332;-62
2023/02/07 03:32:15;;;;;;;18.20;9.00;;;2.50;99.90;;;;;;5027900;28;20209;-62
2023/02/07 03:34:57;;;;;;;21.93;9.80;;;2.60;99.90;;;;;;5026410;28;20309;-59
2023/02/07 03:37:26;;;;;;;22.97;9.43;;;2.50;99.90;;;;;;5046124;28;20347;-59
2023/02/07 03:39:53;;;;;;;24.47;8.97;;;2.60;99.90;;;;;;5026703;28;20271;-63
2023/02/07 03:42:30;;;;;;;19.83;9.27;;;2.50;99.90;;;;;;5025412;28;20225;-60
2023/02/07 03:44:59;;;;;;;21.43;9.30;;;2.30;99.90;;;;;;5027824;28;20318;-62
2023/02/07 03:47:27;;;;;;;18.07;9.07;;;2.30;99.90;;;;;;5029011;28;20255;-60
2023/02/07 03:49:54;;;;;;;19.00;8.53;;;2.30;99.90;;;;;;5027598;28;20686;-59
2023/02/07 03:52:21;;;;;;;22.43;9.43;;;2.30;99.90;;;;;;5030570;28;20531;-62
2023/02/07 03:54:48;;;;;;;18.47;8.77;;;2.20;99.90;;;;;;5028571;28;20306;-61
2023/02/07 03:57:15;;;;;;;23.30;10.77;;;2.00;99.90;;;;;;5029471;28;20831;-60
2023/02/07 03:59:42;;;;;;;18.67;9.90;;;2.00;99.90;;;;;;5028745;28;20567;-60
2023/02/07 04:02:08;;;;;;;16.67;8.60;;;2.10;99.90;;;;;;5031714;28;20301;-59
2023/02/07 04:04:36;;;;;;;13.53;8.50;;;2.10;99.90;;;;;;5034689;28;20259;-59
2023/02/07 04:07:02;;;;;;;17.93;9.60;;;2.00;99.90;;;;;;5038930;28;20201;-60
2023/02/07 04:09:29;;;;;;;21.13;9.37;;;1.90;99.90;;;;;;5036485;28;20664;-59
2023/02/07 04:11:56;;;;;;;24.93;9.93;;;1.90;99.90;;;;;;5038456;28;20263;-59
2023/02/07 04:14:23;;;;;;;18.93;9.70;;;1.90;99.90;;;;;;5037799;28;20575;-60
2023/02/07 04:16:50;;;;;;;23.90;10.63;;;1.90;99.90;;;;;;5027392;28;20212;-63
2023/02/07 04:19:17;;;;;;;20.30;10.13;;;1.90;99.90;;;;;;5022726;28;20751;-59
2023/02/07 04:21:43;;;;;;;19.60;9.73;;;1.90;99.90;;;;;;5027081;28;20201;-62
2023/02/07 04:24:11;;;;;;;21.97;11.37;;;2.00;99.90;;;;;;5024324;28;20496;-59
2023/02/07 04:26:38;;;;;;;24.90;10.67;;;2.00;99.90;;;;;;5029718;28;20677;-63
2023/02/07 04:29:05;;;;;;;22.07;10.23;;;1.90;99.90;;;;;;5021487;28;20227;-59
2023/02/07 04:31:32;;;;;;;19.63;10.17;;;1.90;99.90;;;;;;5027571;28;20295;-59
2023/02/07 04:33:59;;;;;;;25.97;10.67;;;2.00;99.90;;;;;;5025994;28;20870;-62
2023/02/07 04:36:28;;;;;;;19.97;10.27;;;2.00;99.90;;;;;;5026353;28;21069;-63
2023/02/07 04:38:55;;;;;;;27.87;11.77;;;1.90;99.90;;;;;;5022223;28;20557;-63
2023/02/07 04:41:23;;;;;;;19.50;10.27;;;1.90;99.90;;;;;;5023880;28;20224;-59
2023/02/07 04:43:50;;;;;;;23.43;11.73;;;1.80;99.90;;;;;;5022766;28;20207;-60
2023/02/07 04:46:16;;;;;;;28.83;11.13;;;1.70;99.90;;;;;;5024024;28;20294;-62
2023/02/07 04:48:43;;;;;;;26.37;11.97;;;1.80;99.90;;;;;;5021733;28;20573;-60
2023/02/07 04:51:10;;;;;;;29.07;12.30;;;1.80;99.90;;;;;;5025811;28;20290;-60
2023/02/07 04:53:37;;;;;;;24.70;10.90;;;1.80;99.90;;;;;;5023542;28;20283;-64
2023/02/07 04:56:05;;;;;;;24.50;11.00;;;1.80;99.90;;;;;;5025585;28;20207;-63
2023/02/07 04:58:32;;;;;;;22.83;11.30;;;1.80;99.90;;;;;;5027096;28;20264;-61
2023/02/07 05:00:58;;;;;;;25.37;12.17;;;1.80;99.90;;;;;;5031178;28;20244;-60
2023/02/07 05:03:25;;;;;;;24.53;13.23;;;1.80;99.90;;;;;;5022259;28;20284;-60
2023/02/07 05:05:54;;;;;;;25.10;12.60;;;1.80;99.90;;;;;;5025400;28;20200;-60
2023/02/07 05:08:21;;;;;;;25.67;13.17;;;1.80;99.90;;;;;;5024393;28;20617;-60
2023/02/07 05:10:53;;;;;;;32.90;12.27;;;1.80;99.90;;;;;;5023691;28;20208;-61
2023/02/07 05:13:21;;;;;;;25.63;13.60;;;1.80;99.90;;;;;;5023853;28;20578;-60
2023/02/07 05:15:48;;;;;;;25.67;11.60;;;1.80;99.90;;;;;;5025116;28;20759;-59
2023/02/07 05:18:15;;;;;;;27.03;12.33;;;1.90;99.90;;;;;;5022881;28;20296;-59
2023/02/07 05:20:42;;;;;;;31.00;13.40;;;1.80;99.90;;;;;;5023650;28;20377;-59
2023/02/07 05:23:09;;;;;;;24.53;12.10;;;1.80;99.90;;;;;;5027187;28;20206;-61
2023/02/07 05:25:36;;;;;;;29.93;12.67;;;1.70;99.90;;;;;;5022908;28;21185;-60
2023/02/07 05:28:03;;;;;;;27.03;12.90;;;1.60;99.90;;;;;;5022318;28;20669;-60
2023/02/07 05:30:30;;;;;;;30.73;14.13;;;1.60;99.90;;;;;;5023494;28;20225;-63
2023/02/07 05:33:03;;;;;;;27.63;12.17;;;1.70;99.90;;;;;;5026978;28;20205;-60
2023/02/07 05:35:40;;;;;;;33.57;13.13;;;1.60;99.90;;;;;;5026177;28;20201;-59
2023/02/07 05:38:09;;;;;;;28.03;12.20;;;1.50;99.90;;;;;;5029942;28;22034;-59
2023/02/07 05:40:38;;;;;;;27.70;12.87;;;1.50;99.90;;;;;;5026308;28;20219;-63
2023/02/07 05:43:05;;;;;;;30.60;12.30;;;1.40;99.90;;;;;;5033231;28;20204;-60
2023/02/07 05:45:33;;;;;;;24.40;12.37;;;1.40;99.90;;;;;;5041059;28;20335;-60
2023/02/07 05:48:00;;;;;;;25.20;12.90;;;1.40;99.90;;;;;;5039663;28;20649;-60
2023/02/07 05:50:27;;;;;;;24.00;11.60;;;1.40;99.90;;;;;;5034613;28;20614;-60
2023/02/07 05:52:54;;;;;;;26.23;12.93;;;1.40;99.90;;;;;;5041584;28;20209;-59
2023/02/07 05:55:20;;;;;;;26.70;12.47;;;1.40;99.90;;;;;;5039807;28;20205;-59
2023/02/07 05:57:47;;;;;;;25.90;11.57;;;1.40;99.90;;;;;;5039041;28;20232;-59
2023/02/07 06:00:17;;;;;;;27.73;13.37;;;1.20;99.90;;;;;;5038975;28;20243;-59
2023/02/07 06:02:44;;;;;;;23.07;11.37;;;1.20;99.90;;;;;;5040020;28;20287;-60
2023/02/07 06:05:14;;;;;;;23.83;11.27;;;1.10;99.90;;;;;;5032202;28;20197;-58
2023/02/07 06:07:41;;;;;;;25.90;11.33;;;1.10;99.90;;;;;;5033217;28;20202;-59
2023/02/07 06:10:08;;;;;;;22.20;10.87;;;1.10;99.90;;;;;;5052606;28;20329;-61
2023/02/07 06:12:35;;;;;;;20.53;11.03;;;1.00;99.90;;;;;;5030413;28;20241;-60
2023/02/07 06:15:02;;;;;;;23.33;11.47;;;1.10;99.90;;;;;;5030187;28;20216;-60
2023/02/07 06:17:29;;;;;;;19.43;10.10;;;1.10;99.90;;;;;;5028083;28;20201;-60
2023/02/07 06:19:56;;;;;;;24.20;11.30;;;1.10;99.90;;;;;;5024023;28;20221;-62
2023/02/07 06:22:23;;;;;;;21.20;10.63;;;1.10;99.90;;;;;;5027412;28;20735;-59
2023/02/07 06:24:50;;;;;;;19.57;10.17;;;1.10;99.90;;;;;;5031481;28;20674;-60
2023/02/07 06:27:16;;;;;;;20.13;10.60;;;1.10;99.90;;;;;;5032714;28;20201;-60
2023/02/07 06:29:43;;;;;;;21.27;11.27;;;1.00;99.90;;;;;;5026133;28;20200;-60
2023/02/07 06:32:10;;;;;;;20.93;10.63;;;1.10;99.90;;;;;;5029047;28;20288;-60
2023/02/07 06:34:37;;;;;;;17.90;10.37;;;1.10;99.90;;;;;;5033079;28;20202;-60
2023/02/07 06:37:03;;;;;;;15.43;9.43;;;1.00;99.90;;;;;;5028898;28;20275;-60
2023/02/07 06:39:30;;;;;;;18.40;10.37;;;0.90;99.90;;;;;;5037550;28;20256;-59
2023/02/07 06:41:57;;;;;;;20.97;9.53;;;0.90;99.90;;;;;;5037937;28;20218;-59
2023/02/07 06:44:24;;;;;;;17.13;10.20;;;1.00;99.90;;;;;;5038577;28;20200;-59
2023/02/07 06:46:50;;;;;;;17.23;9.83;;;1.00;99.90;;;;;;5037926;28;20204;-59
2023/02/07 06:49:17;;;;;;;18.33;10.27;;;1.00;99.90;;;;;;5027791;28;20313;-61
2023/02/07 06:51:44;;;;;;;19.67;10.10;;;1.00;99.90;;;;;;5028121;28;20197;-59
2023/02/07 06:54:11;;;;;;;18.97;10.30;;;1.00;99.90;;;;;;5026516;28;20197;-59
2023/02/07 06:56:38;;;;;;;16.50;9.93;;;0.90;99.90;;;;;;5025944;28;20245;-60
2023/02/07 06:59:04;;;;;;;17.37;9.47;;;0.80;99.90;;;;;;5022165;28;20572;-61
2023/02/07 07:01:31;;;;;;;18.10;9.60;;;0.70;99.90;;;;;;5017271;28;20224;-60
2023/02/07 07:03:58;;;;;;;17.23;9.43;;;0.70;99.90;;;;;;5024677;28;20213;-60
2023/02/07 07:06:25;;;;;;;17.40;10.23;;;0.70;99.90;;;;;;5030721;28;20235;-60
2023/02/07 07:08:52;;;;;;;18.80;11.20;;;0.70;99.90;;;;;;5028303;28;20220;-60
2023/02/07 07:11:19;;;;;;;18.33;10.00;;;0.80;99.90;;;;;;5026387;28;20355;-61
2023/02/07 07:13:46;;;;;;;18.73;10.27;;;0.80;99.90;;;;;;5024392;28;20879;-62
2023/02/07 07:16:13;;;;;;;19.77;11.23;;;0.80;99.90;;;;;;5025354;28;20653;-63
2023/02/07 07:18:40;;;;;;;19.03;11.37;;;0.80;99.90;;;;;;5022077;28;20200;-62
2023/02/07 07:21:08;;;;;;;19.07;11.40;;;0.80;99.90;;;;;;5024934;28;20688;-61
2023/02/07 07:23:35;;;;;;;18.77;10.37;;;0.90;99.90;;;;;;5042666;28;20233;-60
2023/02/07 07:26:02;;;;;;;23.60;11.87;;;0.80;99.90;;;;;;5023512;28;20197;-60
2023/02/07 07:28:29;;;;;;;19.20;10.80;;;0.70;99.90;;;;;;5017719;28;20446;-60
2023/02/07 07:31:02;;;;;;;20.30;10.87;;;0.80;99.90;;;;;;5018444;28;20218;-64
2023/02/07 07:33:29;;;;;;;21.57;11.43;;;0.90;99.90;;;;;;5019206;28;20221;-64
2023/02/07 07:35:57;;;;;;;17.63;9.90;;;0.90;99.90;;;;;;5017346;28;20239;-60
2023/02/07 07:38:24;;;;;;;21.03;10.90;;;0.90;99.90;;;;;;5017007;28;20202;-61
2023/02/07 07:40:50;;;;;;;17.00;10.37;;;0.80;99.90;;;;;;5018125;28;20699;-60
2023/02/07 07:43:17;;;;;;;16.33;10.43;;;0.70;99.90;;;;;;4659651;28;9999649;-60
2023/02/07 07:45:50;;;;;;;17.47;9.43;;;0.70;99.90;;;;;;5017612;28;20299;-60
2023/02/07 07:48:16;;;;;;;19.00;10.67;;;0.70;99.90;;;;;;5017723;28;20954;-61
2023/02/07 07:50:43;;;;;;;17.17;10.97;;;0.70;99.90;;;;;;5023236;28;20204;-60
2023/02/07 07:53:10;;;;;;;18.50;10.67;;;0.70;99.90;;;;;;5017085;28;20219;-60
2023/02/07 07:55:37;;;;;;;24.53;10.03;;;0.60;99.90;;;;;;5030986;28;20307;-62
2023/02/07 07:58:04;;;;;;;16.43;9.97;;;0.40;99.90;;;;;;5016321;28;20196;-62
2023/02/07 08:00:31;;;;;;;15.07;9.50;;;0.40;99.90;;;;;;5022396;28;20204;-62
2023/02/07 08:02:58;;;;;;;15.70;9.57;;;0.30;99.90;;;;;;5016803;28;20198;-61
2023/02/07 08:05:25;;;;;;;17.07;9.93;;;0.30;99.90;;;;;;5025586;28;20287;-61
2023/02/07 08:07:52;;;;;;;18.40;10.67;;;0.30;99.90;;;;;;5028704;28;20614;-64
2023/02/07 08:10:19;;;;;;;15.13;9.77;;;0.40;99.90;;;;;;5023418;28;20611;-61
2023/02/07 08:12:45;;;;;;;15.27;9.50;;;0.50;99.90;;;;;;5021235;28;20244;-63
2023/02/07 08:15:13;;;;;;;16.00;9.87;;;0.20;99.90;;;;;;5017479;28;20588;-61
2023/02/07 08:17:40;;;;;;;19.67;9.63;;;0.20;99.90;;;;;;5021229;28;20209;-67
2023/02/07 08:20:07;;;;;;;16.20;9.67;;;0.20;99.90;;;;;;5019324;28;20236;-61
2023/02/07 08:22:34;;;;;;;18.20;10.33;;;0.20;99.90;;;;;;5020821;28;20653;-61
2023/02/07 08:25:01;;;;;;;18.43;9.77;;;0.10;99.90;;;;;;5024740;28;20286;-61
2023/02/07 08:27:28;;;;;;;18.57;11.10;;;0.10;99.90;;;;;;5019688;28;20593;-61
2023/02/07 08:29:55;;;;;;;19.67;11.30;;;0.10;99.90;;;;;;5027860;28;20238;-61
2023/02/07 08:32:22;;;;;;;19.50;10.03;;;0.00;99.90;;;;;;5024090;28;20562;-60
2023/02/07 08:34:49;;;;;;;17.77;9.13;;;0.10;99.90;;;;;;5016151;28;20311;-62
2023/02/07 08:37:15;;;;;;;20.40;10.30;;;0.00;99.90;;;;;;5018193;28;20964;-62
2023/02/07 08:39:42;;;;;;;17.60;10.53;;;0.20;99.90;;;;;;5024312;28;20209;-61
2023/02/07 08:42:09;;;;;;;20.07;10.43;;;0.30;99.90;;;;;;5026457;28;20205;-60
2023/02/07 08:44:36;;;;;;;19.53;10.37;;;0.30;99.90;;;;;;5023083;28;20283;-64
2023/02/07 08:47:03;;;;;;;21.40;11.40;;;0.30;99.90;;;;;;5024484;28;21277;-66
2023/02/07 08:49:30;;;;;;;17.77;10.97;;;0.30;99.90;;;;;;5025221;28;20620;-61
2023/02/07 08:51:57;;;;;;;17.27;10.93;;;0.40;99.90;;;;;;5027154;28;20197;-61
2023/02/07 08:54:23;;;;;;;19.13;11.10;;;0.60;77.80;;;;;;5023339;28;20197;-60
2023/02/07 08:56:50;;;;;;;18.47;11.43;;;0.70;1.00;;;;;;5024340;28;20201;-63
2023/02/07 08:59:17;;;;;;;19.33;11.00;;;0.80;1.00;;;;;;5025889;28;20236;-61
2023/02/07 09:01:44;;;;;;;20.60;11.37;;;0.90;1.00;;;;;;5025723;28;20390;-61
2023/02/07 09:04:11;;;;;;;21.33;10.90;;;0.90;1.00;;;;;;5023803;28;20656;-60
2023/02/07 09:06:38;;;;;;;18.63;10.30;;;1.10;1.00;;;;;;5026579;28;20270;-60
2023/02/07 09:09:06;;;;;;;18.60;11.40;;;1.40;28.60;;;;;;5038245;28;20660;-63
2023/02/07 09:11:33;;;;;;;16.30;10.37;;;1.80;1.00;;;;;;5025940;28;20255;-60
2023/02/07 09:14:00;;;;;;;18.57;11.23;;;2.20;99.90;;;;;;5044865;28;20205;-62
2023/02/07 09:16:26;;;;;;;14.73;9.90;;;2.50;1.00;;;;;;5026544;28;20208;-59
2023/02/07 09:18:53;;;;;;;17.73;10.73;;;3.00;99.90;;;;;;5028436;28;20216;-61
2023/02/07 09:21:20;;;;;;;15.37;9.67;;;3.20;1.00;;;;;;5031140;28;20216;-61
2023/02/07 09:23:48;;;;;;;18.27;10.60;;;3.30;1.00;;;;;;5028032;28;20217;-60
2023/02/07 09:26:18;;;;;;;16.17;9.43;;;3.60;99.90;;;;;;5032173;28;20194;-61
2023/02/07 09:28:45;;;;;;;16.43;9.63;;;4.10;99.90;;;;;;5025639;28;20666;-59
2023/02/07 09:31:13;;;;;;;14.60;9.37;;;4.30;1.00;;;;;;5028890;28;20565;-62
2023/02/07 09:33:41;;;;;;;17.57;9.73;;;4.60;1.00;;;;;;5025744;28;20301;-61
2023/02/07 09:36:34;;;;;;;17.50;10.50;;;5.10;1.00;;;;;;5030922;28;20256;-61
2023/02/07 09:39:02;;;;;;;15.27;9.97;;;5.30;1.00;;;;;;5023548;28;20303;-60
2023/02/07 09:42:04;;;;;;;15.83;10.33;;;5.60;1.00;;;;;;5029331;28;20223;-62
2023/02/07 09:45:08;;;;;;;14.70;9.70;;;5.80;1.00;;;;;;5001445;28;20220;-61
2023/02/07 09:47:39;;;;;;;12.60;8.40;;;5.70;1.00;;;;;;5029862;28;20213;-64
2023/02/07 09:50:15;;;;;;;15.47;9.20;;;5.60;1.00;;;;;;5027617;28;20197;-60
2023/02/07 09:53:07;;;;;;;15.07;9.33;;;5.80;1.00;;;;;;5020496;28;20317;-63
2023/02/07 09:55:49;;;;;;;14.03;9.20;;;5.90;1.00;;;;;;5024825;28;20210;-60
2023/02/07 09:58:38;;;;;;;13.57;8.97;;;6.10;1.00;;;;;;5023425;28;20212;-61
2023/02/07 10:01:16;;;;;;;13.47;8.53;;;6.60;1.00;;;;;;5025699;28;20220;-60
2023/02/07 10:04:04;;;;;;;13.10;8.10;;;6.80;99.90;;;;;;5023641;28;20262;-61
2023/02/07 10:06:33;;;;;;;10.80;7.93;;;6.60;99.90;;;;;;5027585;28;20287;-64
2023/02/07 10:09:00;;;;;;;12.37;8.37;;;6.70;99.90;;;;;;5028599;28;20197;-61
2023/02/07 10:11:55;;;;;;;12.63;8.20;;;6.80;99.90;;;;;;5025705;28;20236;-65
2023/02/07 10:14:27;;;;;;;14.00;8.87;;;7.10;99.90;;;;;;5028616;28;20215;-61
2023/02/07 10:17:25;;;;;;;10.37;7.83;;;7.20;99.90;;;;;;5029453;28;21079;-61
2023/02/07 10:19:57;;;;;;;11.77;8.40;;;7.30;99.90;;;;;;5027197;28;20303;-64
2023/02/07 10:22:50;;;;;;;13.20;8.20;;;7.00;99.90;;;;;;5023364;28;20609;-64
2023/02/07 10:26:03;;;;;;;10.83;7.90;;;6.80;99.90;;;;;;5019285;28;20300;-62
2023/02/07 10:28:35;;;;;;;11.90;7.47;;;7.60;99.90;;;;;;4980340;28;20261;-61
2023/02/07 10:31:08;;;;;;;10.93;7.50;;;7.70;99.90;;;;;;4984381;28;20219;-61
2023/02/07 10:33:37;;;;;;;10.03;7.37;;;6.90;99.90;;;;;;4984968;28;20209;-62
2023/02/07 10:36:13;;;;;;;10.23;6.67;;;7.10;99.90;;;;;;4984302;28;20226;-62
2023/02/07 10:38:55;;;;;;;9.80;6.60;;;7.20;99.90;;;;;;4988224;28;20636;-61
2023/02/07 10:41:40;;;;;;;9.07;6.60;;;7.90;99.90;;;;;;4981798;28;20245;-63
2023/02/07 10:44:18;;;;;;;12.10;6.73;;;8.00;99.90;;;;;;4980113;28;20941;-60
2023/02/07 10:46:52;;;;;;;11.33;6.80;;;7.90;1.00;;;;;;4983375;28;20201;-64
2023/02/07 10:49:24;;;;;;;10.40;6.90;;;7.70;96.20;;;;;;4983733;28;20218;-63
2023/02/07 10:51:55;;;;;;;8.93;6.27;;;8.00;98.50;;;;;;4986199;28;20199;-61
2023/02/07 10:54:25;;;;;;;8.13;6.47;;;7.70;86.80;;;;;;4984060;28;20771;-60
2023/02/07 10:56:58;;;;;;;13.83;6.70;;;7.40;99.90;;;;;;4985591;28;20220;-61
2023/02/07 10:59:39;;;;;;;7.23;5.73;;;7.60;37.60;;;;;;4985091;28;21002;-60
2023/02/07 11:02:28;;;;;;;8.77;6.23;;;7.00;1.00;;;;;;4999794;28;20240;-62
2023/02/07 11:04:57;;;;;;;9.40;6.23;;;7.30;99.90;;;;;;5028443;28;20215;-61
2023/02/07 11:07:24;;;;;;;8.90;6.00;;;7.70;52.70;;;;;;5023162;28;20283;-64
2023/02/07 11:10:11;;;;;;;7.53;5.53;;;7.90;18.60;;;;;;5025095;28;20305;-62
2023/02/07 11:13:02;;;;;;;8.80;5.43;;;8.20;1.00;;;;;;5023908;28;20244;-61
2023/02/07 11:15:44;;;;;;;6.27;5.20;;;7.90;1.00;;;;;;5023565;28;20260;-60
2023/02/07 11:18:30;;;;;;;8.40;6.20;;;7.70;1.00;;;;;;5021047;28;20279;-62
2023/02/07 11:20:56;;;;;;;7.87;4.87;;;7.70;1.00;;;;;;5017393;28;20242;-61
2023/02/07 11:23:24;;;;;;;8.80;5.10;;;8.30;1.00;;;;;;5021525;28;20678;-61
2023/02/07 11:25:54;;;;;;;6.20;4.53;;;8.30;1.00;;;;;;5017469;28;20677;-63
2023/02/07 11:28:29;;;;;;;5.80;4.67;;;8.60;1.00;;;;;;5015060;28;20204;-62
2023/02/07 11:31:07;;;;;;;5.37;4.57;;;8.80;1.00;;;;;;5021498;28;20241;-60
2023/02/07 11:33:38;;;;;;;8.70;5.00;;;8.90;1.00;;;;;;5026878;28;20282;-60
2023/02/07 11:36:29;;;;;;;4.43;3.83;;;8.60;1.00;;;;;;5020141;28;20234;-64
2023/02/07 11:38:58;;;;;;;7.80;5.20;;;8.70;1.00;;;;;;5021153;28;20298;-62
2023/02/07 11:41:31;;;;;;;6.60;5.10;;;8.80;1.00;;;;;;5020683;28;20364;-63
2023/02/07 11:44:00;;;;;;;6.93;4.73;;;8.50;1.00;;;;;;5023825;28;20276;-60
2023/02/07 11:46:37;;;;;;;8.83;4.60;;;9.00;1.00;;;;;;5023274;28;20291;-62
2023/02/07 11:49:25;;;;;;;8.73;5.20;;;9.60;1.00;;;;;;5023100;28;20226;-60
2023/02/07 11:51:56;;;;;;;5.80;4.50;;;9.10;1.00;;;;;;5043203;28;20200;-61
2023/02/07 11:54:24;;;;;;;6.90;4.80;;;9.30;1.00;;;;;;5027708;28;20206;-59
2023/02/07 11:56:59;;;;;;;6.80;5.00;;;9.50;1.00;;;;;;5022336;28;20206;-61
2023/02/07 11:59:27;;;;;;;8.10;4.17;;;9.30;1.00;;;;;;5022436;28;20234;-62
2023/02/07 12:02:00;;;;;;;6.20;4.40;;;9.60;1.00;;;;;;5023205;28;20800;-62
2023/02/07 12:04:32;;;;;;;6.20;4.70;;;9.60;1.00;;;;;;5024157;28;20678;-63
2023/02/07 12:07:24;;;;;;;6.97;4.30;;;9.30;1.00;;;;;;5024424;28;20259;-60
2023/02/07 12:10:05;;;;;;;5.70;4.73;;;9.40;1.00;;;;;;5025855;28;20652;-60
2023/02/07 12:12:49;;;;;;;6.43;4.67;;;10.20;1.00;;;;;;5026306;28;20232;-61
2023/02/07 12:15:25;;;;;;;6.90;4.93;;;10.10;1.00;;;;;;5028024;28;20287;-62
2023/02/07 12:18:12;;;;;;;7.10;4.87;;;9.90;1.00;;;;;;5020488;28;20205;-62
2023/02/07 12:20:51;;;;;;;16.90;8.03;;;10.30;1.00;;;;;;5013881;28;20217;-61
2023/02/07 12:23:37;;;;;;;7.10;5.10;;;10.60;1.00;;;;;;5009316;28;20222;-61
2023/02/07 12:26:21;;;;;;;7.03;4.70;;;10.80;1.00;;;;;;5022995;28;20205;-60
2023/02/07 12:29:08;;;;;;;7.20;4.93;;;11.00;1.00;;;;;;5022915;28;20195;-59
2023/02/07 12:32:09;;;;;;;6.80;5.30;;;11.20;1.00;;;;;;5027264;28;20639;-59
2023/02/07 12:35:04;;;;;;;5.43;4.20;;;11.50;1.00;;;;;;5023168;28;20672;-61
2023/02/07 12:37:53;;;;;;;8.60;4.60;;;11.30;1.00;;;;;;5025164;28;20212;-60
2023/02/07 12:40:38;;;;;;;5.30;4.03;;;11.40;1.00;;;;;;5023916;28;20326;-60
2023/02/07 12:43:21;;;;;;;10.57;4.67;;;10.80;1.00;;;;;;5022691;28;20215;-60
2023/02/07 12:45:53;;;;;;;5.73;4.50;;;10.90;1.00;;;;;;5028026;28;20600;-60
2023/02/07 12:48:32;;;;;;;7.10;4.67;;;11.20;1.00;;;;;;5017951;28;20201;-60
2023/02/07 12:51:31;;;;;;;8.40;5.57;;;11.00;1.00;;;;;;5023816;28;20237;-60
2023/02/07 12:54:16;;;;;;;5.03;4.50;;;11.90;1.00;;;;;;5019926;28;20689;-60
2023/02/07 12:57:08;;;;;;;7.50;4.70;;;11.90;1.00;;;;;;5023211;28;20212;-60
2023/02/07 12:59:59;;;;;;;7.50;5.20;;;12.00;1.00;;;;;;5025344;28;20674;-60
2023/02/07 13:02:34;;;;;;;6.90;4.57;;;12.30;1.00;;;;;;5022483;28;20293;-60
2023/02/07 13:05:18;;;;;;;5.67;4.93;;;11.90;1.00;;;;;;5022617;28;20205;-61
2023/02/07 13:08:23;;;;;;;9.57;5.70;;;12.10;1.00;;;;;;5019582;28;20231;-60
2023/02/07 13:11:04;;;;;;;7.20;4.87;;;12.80;1.00;;;;;;5019523;28;20198;-61